createdAt,value
2018-05-08T00:00:38.710Z,98423.16
2018-05-08T00:03:06.096Z,98426.42
2018-05-08T00:05:33.493Z,98425.16
2018-05-08T00:08:00.896Z,98420.82
2018-05-08T00:10:28.268Z,98417.53
2018-05-08T00:12:55.685Z,98420.36
2018-05-08T00:15:23.688Z,98413.53
2018-05-08T00:17:51.084Z,98416.70
2018-05-08T00:20:18.467Z,98418.19
2018-05-08T00:22:45.855Z,98418.05
2018-05-08T00:25:13.235Z,98421.52
2018-05-08T00:27:40.644Z,98413.08
2018-05-08T00:30:08.025Z,98411.03
2018-05-08T00:32:35.432Z,98408.14
2018-05-08T00:35:03.253Z,98416.50
2018-05-08T00:37:30.651Z,98421.22
2018-05-08T00:39:58.044Z,98413.48
2018-05-08T00:42:25.455Z,98414.76
2018-05-08T00:44:52.851Z,98410.02
2018-05-08T00:47:20.264Z,98403.67
2018-05-08T00:49:47.652Z,98404.34
2018-05-08T00:52:15.042Z,98409.83
2018-05-08T00:54:54.232Z,98404.33
2018-05-08T00:57:21.616Z,98401.55
2018-05-08T00:59:49.414Z,98401.29
2018-05-08T01:02:16.805Z,98406.20
2018-05-08T01:04:44.758Z,98405.27
2018-05-08T01:07:12.145Z,98405.05
2018-05-08T01:09:39.536Z,98400.63
2018-05-08T01:12:06.921Z,98401.99
2018-05-08T01:14:34.332Z,98406.50
2018-05-08T01:17:01.787Z,98400.19
2018-05-08T01:19:29.117Z,98398.94
2018-05-08T01:21:56.496Z,98402.36
2018-05-08T01:24:23.904Z,98394.47
2018-05-08T01:26:51.305Z,98395.91
2018-05-08T01:29:18.726Z,98396.00
2018-05-08T01:31:46.134Z,98397.22
2018-05-08T01:34:14.858Z,98401.30
2018-05-08T01:36:42.247Z,98392.56
2018-05-08T01:39:09.646Z,98381.22
2018-05-08T01:41:37.047Z,98386.52
2018-05-08T01:44:04.436Z,98381.31
2018-05-08T01:46:31.841Z,98387.36
2018-05-08T01:48:59.291Z,98379.77
2018-05-08T01:51:26.744Z,98381.71
2018-05-08T01:53:54.145Z,98380.97
2018-05-08T01:56:21.535Z,98383.73
2018-05-08T01:58:48.940Z,98384.63
2018-05-08T02:01:16.316Z,98382.67
2018-05-08T02:03:43.701Z,98382.20
2018-05-08T02:06:11.090Z,98385.33
2018-05-08T02:08:38.485Z,98388.48
2018-05-08T02:11:05.868Z,98388.20
2018-05-08T02:13:33.275Z,98398.28
2018-05-08T02:16:00.664Z,98393.97
2018-05-08T02:18:28.065Z,98399.95
2018-05-08T02:20:55.871Z,98391.91
2018-05-08T02:23:23.304Z,98390.03
2018-05-08T02:25:51.488Z,98384.18
2018-05-08T02:28:18.895Z,98392.19
2018-05-08T02:30:46.288Z,98384.55
2018-05-08T02:33:13.696Z,98382.10
2018-05-08T02:35:41.099Z,98380.97
2018-05-08T02:38:08.505Z,98382.57
2018-05-08T02:40:36.590Z,98384.20
2018-05-08T02:43:03.977Z,98376.63
2018-05-08T02:45:31.372Z,98377.75
2018-05-08T02:47:58.760Z,98379.92
2018-05-08T02:50:26.822Z,98373.97
2018-05-08T02:52:54.206Z,98378.33
2018-05-08T02:55:22.300Z,98378.55
2018-05-08T02:57:49.840Z,98378.00
2018-05-08T03:00:17.237Z,98370.53
2018-05-08T03:02:44.608Z,98377.96
2018-05-08T03:05:12.013Z,98368.00
2018-05-08T03:07:39.384Z,98367.50
2018-05-08T03:10:06.788Z,98376.61
2018-05-08T03:12:34.192Z,98371.48
2018-05-08T03:15:01.594Z,98370.01
2018-05-08T03:17:29.760Z,98369.44
2018-05-08T03:19:57.525Z,98371.50
2018-05-08T03:22:24.994Z,98372.02
2018-05-08T03:24:52.332Z,98368.13
2018-05-08T03:27:19.727Z,98359.16
2018-05-08T03:29:47.112Z,98357.05
2018-05-08T03:32:14.487Z,98364.32
2018-05-08T03:34:41.880Z,98359.05
2018-05-08T03:37:10.143Z,98360.61
2018-05-08T03:39:37.524Z,98362.22
2018-05-08T03:42:04.932Z,98372.02
2018-05-08T03:44:32.307Z,98372.77
2018-05-08T03:46:59.697Z,98372.43
2018-05-08T03:49:27.080Z,98368.73
2018-05-08T03:51:54.456Z,98367.74
2018-05-08T03:54:21.847Z,98367.83
2018-05-08T03:56:49.237Z,98368.72
2018-05-08T03:59:16.627Z,98376.70
2018-05-08T04:01:55.704Z,98372.25
2018-05-08T04:04:34.775Z,98371.30
2018-05-08T04:07:13.853Z,98370.05
2018-05-08T04:09:41.903Z,98361.87
2018-05-08T04:12:09.288Z,98361.23
2018-05-08T04:14:36.677Z,98351.98
2018-05-08T04:17:04.662Z,98358.12
2018-05-08T04:19:32.115Z,98358.88
2018-05-08T04:21:59.485Z,98351.42
2018-05-08T04:24:27.729Z,98349.16
2018-05-08T04:26:55.108Z,98344.63
2018-05-08T04:29:22.502Z,98346.02
2018-05-08T04:31:49.896Z,98342.48
2018-05-08T04:34:17.272Z,98337.34
2018-05-08T04:36:44.846Z,98341.27
2018-05-08T04:39:12.216Z,98342.10
2018-05-08T04:41:39.627Z,98333.88
2018-05-08T04:44:06.998Z,98336.53
2018-05-08T04:46:34.403Z,98334.26
2018-05-08T04:49:02.628Z,98331.13
2018-05-08T04:51:30.020Z,98328.59
2018-05-08T04:53:57.408Z,98320.73
2018-05-08T04:56:24.801Z,98322.63
2018-05-08T04:58:52.189Z,98322.50
2018-05-08T05:01:19.584Z,98324.33
2018-05-08T05:03:46.978Z,98323.82
2018-05-08T05:06:14.347Z,98325.20
2018-05-08T05:08:42.081Z,98323.34
2018-05-08T05:11:09.862Z,98320.41
2018-05-08T05:13:37.248Z,98323.63
2018-05-08T05:16:04.640Z,98322.55
2018-05-08T05:18:32.021Z,98323.73
2018-05-08T05:20:59.424Z,98319.77
2018-05-08T05:23:26.808Z,98316.34
2018-05-08T05:25:54.209Z,98314.80
2018-05-08T05:28:21.589Z,98313.54
2018-05-08T05:30:49.004Z,98314.14
2018-05-08T05:33:16.385Z,98311.80
2018-05-08T05:35:43.788Z,98308.28
2018-05-08T05:38:11.169Z,98307.70
2018-05-08T05:40:38.570Z,98300.95
2018-05-08T05:43:05.947Z,98289.06
2018-05-08T05:45:33.345Z,98283.38
2018-05-08T05:48:00.733Z,98281.20
2018-05-08T05:50:28.128Z,98274.23
2018-05-08T05:52:55.515Z,98261.57
2018-05-08T05:55:23.327Z,98256.19
2018-05-08T05:57:50.727Z,98262.67
2018-05-08T06:00:19.516Z,98256.88
2018-05-08T06:02:46.917Z,98265.17
2018-05-08T06:05:15.589Z,98265.53
2018-05-08T06:07:42.977Z,98269.84
2018-05-08T06:10:10.368Z,98264.14
2018-05-08T06:12:37.765Z,98266.58
2018-05-08T06:15:05.165Z,98265.24
2018-05-08T06:17:32.563Z,98263.34
2018-05-08T06:19:59.947Z,98267.22
2018-05-08T06:22:27.348Z,98271.06
2018-05-08T06:24:54.732Z,98276.56
2018-05-08T06:27:22.128Z,98279.02
2018-05-08T06:29:49.517Z,98281.09
2018-05-08T06:32:17.130Z,98286.35
2018-05-08T06:34:44.519Z,98282.88
2018-05-08T06:37:11.929Z,98284.47
2018-05-08T06:39:39.316Z,98284.95
2018-05-08T06:42:06.707Z,98289.36
2018-05-08T06:44:34.100Z,98287.25
2018-05-08T06:47:01.493Z,98288.78
2018-05-08T06:49:28.874Z,98287.84
2018-05-08T06:51:56.272Z,98282.80
2018-05-08T06:54:23.664Z,98284.20
2018-05-08T06:56:51.055Z,98283.45
2018-05-08T06:59:18.451Z,98281.44
2018-05-08T07:01:45.860Z,98285.20
2018-05-08T07:04:13.235Z,98284.02
2018-05-08T07:06:40.647Z,98286.00
2018-05-08T07:09:08.132Z,98277.55
2018-05-08T07:11:35.429Z,98272.33
2018-05-08T07:14:02.807Z,98271.19
2018-05-08T07:16:30.203Z,98272.97
2018-05-08T07:18:57.585Z,98269.77
2018-05-08T07:21:25.010Z,98266.30
2018-05-08T07:23:52.426Z,98268.45
2018-05-08T07:26:19.797Z,98269.89
2018-05-08T07:28:47.180Z,98265.14
2018-05-08T07:31:14.560Z,98269.59
2018-05-08T07:33:41.967Z,98266.09
2018-05-08T07:36:10.184Z,98261.11
2018-05-08T07:38:38.388Z,98262.05
2018-05-08T07:41:05.764Z,98262.75
2018-05-08T22:02:38.283Z,97847.94
2018-05-08T22:05:05.669Z,97851.41
2018-05-08T22:07:33.071Z,97845.66
2018-05-08T22:10:00.444Z,97849.06
2018-05-08T22:12:27.836Z,97856.30
2018-05-08T22:14:55.221Z,97853.16
2018-05-08T22:17:23.020Z,97855.33
2018-05-08T22:19:50.412Z,97848.27
2018-05-08T22:22:17.803Z,97854.95
2018-05-08T22:24:45.196Z,97844.40
2018-05-08T22:27:12.939Z,97849.11
2018-05-08T22:29:40.334Z,97849.41
2018-05-08T22:32:07.728Z,97851.47
2018-05-08T22:34:35.114Z,97851.00
2018-05-08T22:37:02.515Z,97854.00
2018-05-08T22:39:29.892Z,97850.47
2018-05-08T22:41:57.305Z,97845.05
2018-05-08T22:44:24.689Z,97852.70
2018-05-08T22:46:52.080Z,97860.05
2018-05-08T22:49:19.485Z,97857.54
2018-05-08T22:51:46.878Z,97854.54
2018-05-08T22:54:15.253Z,97858.09
2018-05-08T22:56:42.645Z,97865.66
2018-05-08T22:59:10.055Z,97865.17
2018-05-08T23:01:37.435Z,97854.88
2018-05-08T23:04:04.835Z,97856.41
2018-05-08T23:06:32.220Z,97854.47
2018-05-08T23:08:59.613Z,97855.98
2018-05-08T23:11:26.995Z,97849.84
2018-05-08T23:13:54.390Z,97840.23
2018-05-08T23:16:21.771Z,97852.20
2018-05-08T23:18:49.165Z,97851.41
2018-05-08T23:21:16.568Z,97847.68
2018-05-08T23:23:43.966Z,97842.39
2018-05-08T23:26:11.364Z,97850.03
2018-05-08T23:28:38.750Z,97848.66
2018-05-08T23:31:06.569Z,97856.87
2018-05-08T23:33:33.949Z,97860.27
2018-05-08T23:36:01.324Z,97858.75
2018-05-08T23:38:28.726Z,97853.66
2018-05-08T23:40:56.112Z,97844.48
2018-05-08T23:43:23.492Z,97841.88
2018-05-08T23:45:50.895Z,97842.79
2018-05-08T23:48:18.298Z,97850.05
2018-05-08T23:50:45.692Z,97844.09
2018-05-08T23:53:13.079Z,97843.67
2018-05-08T23:55:40.476Z,97849.89
2018-05-08T23:58:07.879Z,97852.35
